createdAt,value
2022-12-01T00:00:31.711Z,101298.25
2022-12-01T00:03:01.656Z,101301.78
2022-12-01T00:05:31.962Z,101300.88
2022-12-01T00:08:05.156Z,101299.94
2022-12-01T00:10:33.632Z,101300.88
2022-12-01T00:13:04.938Z,101301.78
2022-12-01T00:15:37.235Z,101293.03
2022-12-01T00:18:07.819Z,101293.06
2022-12-01T00:20:38.338Z,101291.28
2022-12-01T00:23:11.615Z,101296.53
2022-12-01T00:25:41.187Z,101295.69
2022-12-01T00:28:11.231Z,101295.72
2022-12-01T00:30:40.789Z,101295.72
2022-12-01T00:33:10.346Z,101294.88
2022-12-01T00:35:40.020Z,101294.00
2022-12-01T00:38:12.198Z,101292.25
2022-12-01T00:40:41.751Z,101297.50
2022-12-01T00:43:11.461Z,101296.59
2022-12-01T00:45:41.144Z,101299.22
2022-12-01T00:48:10.812Z,101302.69
2022-12-01T00:50:40.486Z,101297.41
2022-12-01T00:53:12.710Z,101295.72
2022-12-01T00:55:42.898Z,101298.31
2022-12-01T00:58:12.501Z,101300.13
2022-12-01T01:00:43.043Z,101302.75
2022-12-01T01:03:13.241Z,101304.50
2022-12-01T01:05:44.160Z,101301.00
2022-12-01T01:08:17.751Z,101309.78
2022-12-01T01:10:48.719Z,101315.03
2022-12-01T01:13:18.876Z,101308.91
2022-12-01T01:15:48.667Z,101314.16
2022-12-01T01:18:18.197Z,101308.03
2022-12-01T01:20:47.927Z,101316.78
2022-12-01T01:23:20.111Z,101312.41
2022-12-01T01:25:49.692Z,101316.81
2022-12-01T01:28:19.816Z,101319.47
2022-12-01T01:30:49.500Z,101321.22
2022-12-01T01:33:19.112Z,101320.38
2022-12-01T01:35:48.683Z,101324.75
2022-12-01T01:38:21.049Z,101324.75
2022-12-01T01:40:50.627Z,101321.25
2022-12-01T01:43:39.246Z,101329.13
2022-12-01T01:46:09.363Z,101336.16
2022-12-01T01:48:39.853Z,101337.03
2022-12-01T01:51:10.298Z,101334.34
2022-12-01T01:53:42.728Z,101333.50
2022-12-01T01:56:12.407Z,101330.88
2022-12-01T01:58:42.343Z,101330.88
2022-12-01T02:01:11.976Z,101328.28
2022-12-01T02:03:43.082Z,101330.03
2022-12-01T02:06:16.009Z,101328.31
2022-12-01T02:08:48.684Z,101330.97
2022-12-01T02:11:52.016Z,101331.81
2022-12-01T02:14:36.638Z,101331.00
2022-12-01T02:17:13.761Z,101325.75
2022-12-01T02:20:06.283Z,101322.28
2022-12-01T02:22:52.185Z,101321.41
2022-12-01T02:25:29.260Z,101322.34
2022-12-01T02:28:16.442Z,101325.00
2022-12-01T02:30:51.688Z,101326.75
2022-12-01T02:33:23.933Z,101319.72
2022-12-01T02:35:58.942Z,101329.38
2022-12-01T02:38:32.797Z,101333.78
2022-12-01T02:41:10.450Z,101322.41
2022-12-01T02:43:45.357Z,101325.94
2022-12-01T02:46:20.996Z,101335.59
2022-12-01T02:48:52.595Z,101326.84
2022-12-01T02:51:23.974Z,101320.75
2022-12-01T02:53:53.641Z,101324.25
2022-12-01T02:56:24.287Z,101319.88
2022-12-01T02:58:53.980Z,101319.00
2022-12-01T03:01:35.484Z,101319.88
2022-12-01T03:04:22.497Z,101323.34
2022-12-01T03:06:58.690Z,101320.72
2022-12-01T03:09:33.564Z,101325.94
2022-12-01T03:12:12.495Z,101328.56
2022-12-01T03:14:45.218Z,101323.34
2022-12-01T03:17:19.880Z,101323.34
2022-12-01T03:19:52.313Z,101320.75
2022-12-01T03:22:25.957Z,101329.50
2022-12-01T03:24:57.721Z,101329.53
2022-12-01T03:27:30.571Z,101326.91
2022-12-01T03:30:02.324Z,101333.00
2022-12-01T03:32:38.598Z,101329.50
2022-12-01T03:35:11.535Z,101327.75
2022-12-01T03:37:44.250Z,101335.59
2022-12-01T03:40:17.826Z,101329.44
2022-12-01T03:42:49.536Z,101334.66
2022-12-01T03:45:21.414Z,101323.28
2022-12-01T03:47:53.650Z,101319.75
2022-12-01T03:50:23.525Z,101329.38
2022-12-01T03:52:59.383Z,101312.75
2022-12-01T03:55:30.925Z,101324.13
2022-12-01T03:58:04.390Z,101326.75
2022-12-01T04:00:34.137Z,101320.63
2022-12-01T04:03:07.172Z,101321.47
2022-12-01T04:05:37.876Z,101318.81
2022-12-01T04:08:08.153Z,101326.66
2022-12-01T04:10:37.756Z,101322.31
2022-12-01T04:13:04.733Z,101328.44
2022-12-01T04:15:34.390Z,101325.81
2022-12-01T04:18:06.960Z,101329.31
2022-12-01T04:20:36.574Z,101331.94
2022-12-01T04:23:06.185Z,101331.06
2022-12-01T04:25:35.721Z,101329.28
2022-12-01T04:28:05.552Z,101323.13
2022-12-01T04:30:35.096Z,101330.94
2022-12-01T04:33:07.352Z,101323.91
2022-12-01T04:35:36.908Z,101328.28
2022-12-01T04:38:06.773Z,101326.53
2022-12-01T04:40:36.327Z,101316.88
2022-12-01T04:43:05.906Z,101319.47
2022-12-01T04:45:35.484Z,101322.09
2022-12-01T04:48:07.835Z,101321.22
2022-12-01T04:50:37.424Z,101323.88
2022-12-01T04:53:07.179Z,101319.50
2022-12-01T04:55:39.811Z,101322.13
2022-12-01T04:58:09.689Z,101321.25
2022-12-01T05:00:40.050Z,101321.25
2022-12-01T05:03:15.214Z,101329.19
2022-12-01T05:05:45.072Z,101319.63
2022-12-01T05:08:14.723Z,101317.00
2022-12-01T05:10:44.276Z,101316.16
2022-12-01T05:13:13.847Z,101314.41
2022-12-01T05:15:43.421Z,101321.41
2022-12-01T05:18:15.665Z,101328.44
2022-12-01T05:20:57.838Z,101330.19
2022-12-01T05:23:27.536Z,101332.81
2022-12-01T05:25:57.881Z,101331.97
2022-12-01T05:28:28.920Z,101326.72
2022-12-01T05:30:59.077Z,101324.06
2022-12-01T05:33:31.671Z,101328.47
2022-12-01T05:36:01.348Z,101332.88
2022-12-01T05:38:30.912Z,101325.88
2022-12-01T05:41:00.798Z,101331.09
2022-12-01T05:43:30.337Z,101333.72
2022-12-01T05:46:00.126Z,101331.94
2022-12-01T05:48:32.417Z,101332.78
2022-12-01T05:51:01.996Z,101330.16
2022-12-01T05:53:31.544Z,101339.78
2022-12-01T05:56:01.115Z,101334.53
2022-12-01T05:58:30.666Z,101338.03
2022-12-01T06:01:00.340Z,101334.47
2022-12-01T06:03:32.548Z,101327.47
2022-12-01T06:06:02.164Z,101332.72
2022-12-01T06:08:31.799Z,101343.22
2022-12-01T06:11:01.426Z,101344.13
2022-12-01T06:13:30.990Z,101338.03
2022-12-01T06:16:02.666Z,101334.53
2022-12-01T06:18:37.010Z,101338.06
2022-12-01T06:21:07.734Z,101339.81
2022-12-01T06:23:37.566Z,101344.13
2022-12-01T06:26:07.390Z,101343.28
2022-12-01T06:28:37.024Z,101345.91
2022-12-01T06:31:06.722Z,101341.50
2022-12-01T06:33:38.904Z,101345.91
2022-12-01T06:36:10.500Z,101356.38
2022-12-01T06:38:40.176Z,101352.84
2022-12-01T06:41:09.963Z,101355.38
2022-12-01T06:43:39.958Z,101350.13
2022-12-01T06:46:09.609Z,101351.84
2022-12-01T06:48:41.814Z,101353.59
2022-12-01T06:51:11.679Z,101353.66
2022-12-01T06:53:41.234Z,101361.56
2022-12-01T06:56:10.804Z,101374.78
2022-12-01T06:58:40.593Z,101372.22
2022-12-01T07:01:11.299Z,101369.63
2022-12-01T07:03:43.459Z,101362.59
2022-12-01T07:06:13.004Z,101375.75
2022-12-01T07:08:42.662Z,101367.91
2022-12-01T07:11:15.194Z,101373.16
2022-12-01T07:13:45.753Z,101370.56
2022-12-01T07:16:15.754Z,101375.84
2022-12-01T07:18:47.905Z,101375.91
2022-12-01T07:21:18.010Z,101373.31
2022-12-01T07:23:47.584Z,101376.88
2022-12-01T07:26:19.585Z,101387.41
2022-12-01T07:28:49.141Z,101387.47
2022-12-01T07:31:20.559Z,101397.13
2022-12-01T07:33:52.762Z,101384.03
2022-12-01T07:36:22.357Z,101384.03
2022-12-01T07:38:51.886Z,101385.75
2022-12-01T07:41:22.230Z,101392.75
2022-12-01T07:43:53.268Z,101397.97
2022-12-01T07:46:24.867Z,101390.06
2022-12-01T07:48:57.983Z,101390.94
2022-12-01T07:51:28.069Z,101398.75
2022-12-01T07:53:57.684Z,101396.09
2022-12-01T07:56:27.853Z,101405.69
2022-12-01T07:58:57.459Z,101407.44
2022-12-01T08:01:28.184Z,101397.78
2022-12-01T08:04:01.331Z,101411.81
2022-12-01T08:06:30.908Z,101405.66
2022-12-01T08:09:00.443Z,101415.25
2022-12-01T08:11:31.902Z,101413.50
2022-12-01T08:14:01.460Z,101415.28
2022-12-01T08:16:31.440Z,101412.66
2022-12-01T08:19:03.614Z,101412.69
2022-12-01T08:21:33.164Z,101418.81
2022-12-01T08:24:02.738Z,101422.31
2022-12-01T08:26:32.507Z,101432.78
2022-12-01T08:29:02.083Z,101424.88
2022-12-01T08:31:35.713Z,101424.00
2022-12-01T08:34:08.568Z,101425.72
2022-12-01T08:36:38.362Z,101423.97
2022-12-01T08:39:08.036Z,101428.34
2022-12-01T08:41:37.720Z,101429.19
2022-12-01T08:44:07.645Z,101430.94
2022-12-01T08:46:38.159Z,101430.03
2022-12-01T08:49:10.439Z,101433.56
2022-12-01T08:51:40.083Z,101432.69
2022-12-01T08:54:09.727Z,101439.72
2022-12-01T08:56:41.065Z,101431.84
2022-12-01T08:59:11.384Z,101436.22
2022-12-01T09:01:52.058Z,101434.47
2022-12-01T09:04:26.090Z,101439.72
2022-12-01T09:06:56.911Z,101439.75
2022-12-01T09:09:28.422Z,101438.84
2022-12-01T09:11:58.696Z,101441.47
2022-12-01T09:14:28.271Z,101432.69
2022-12-01T09:16:57.846Z,101431.81
2022-12-01T09:19:30.751Z,101428.31
2022-12-01T09:22:00.774Z,101427.41
2022-12-01T09:24:31.072Z,101436.09
2022-12-01T09:27:03.401Z,101432.56
2022-12-01T09:29:33.598Z,101432.53
2022-12-01T09:32:03.532Z,101438.66
2022-12-01T09:34:36.056Z,101433.38
2022-12-01T09:37:06.909Z,101432.47
2022-12-01T09:39:36.539Z,101434.22
2022-12-01T09:42:09.621Z,101435.13
2022-12-01T09:44:42.817Z,101441.28
2022-12-01T09:47:19.281Z,101443.03
2022-12-01T09:49:55.488Z,101434.22
2022-12-01T09:52:27.004Z,101439.50
2022-12-01T09:54:57.807Z,101433.34
2022-12-01T09:57:32.970Z,101434.16
2022-12-01T10:00:06.136Z,101432.44
2022-12-01T10:02:43.896Z,101424.53
2022-12-01T10:05:19.508Z,101428.91
2022-12-01T10:07:51.670Z,101427.19
2022-12-01T10:10:26.538Z,101424.56
2022-12-01T10:12:56.205Z,101425.44
2022-12-01T10:15:35.162Z,101427.25
2022-12-01T10:18:20.691Z,101436.03
2022-12-01T10:21:00.488Z,101435.19
2022-12-01T10:23:50.383Z,101425.53
2022-12-01T10:26:26.813Z,101424.66
2022-12-01T10:29:02.874Z,101426.47
2022-12-01T10:31:37.672Z,101424.72
2022-12-01T10:34:10.382Z,101416.91
2022-12-01T10:36:42.538Z,101413.41
2022-12-01T10:39:20.001Z,101420.44
2022-12-01T10:41:50.644Z,101417.81
2022-12-01T10:44:21.419Z,101409.06
2022-12-01T10:46:53.552Z,101402.03
2022-12-01T10:49:23.509Z,101411.56
2022-12-01T10:52:00.042Z,101410.59
2022-12-01T10:54:35.765Z,101401.78
2022-12-01T10:57:06.110Z,101402.63
2022-12-01T10:59:38.926Z,101399.03
2022-12-01T11:02:17.209Z,101398.06
2022-12-01T11:04:49.312Z,101406.75
2022-12-01T11:07:23.562Z,101402.34
2022-12-01T11:10:05.244Z,101407.66
2022-12-01T11:12:35.501Z,101403.31
2022-12-01T11:15:05.340Z,101407.72
2022-12-01T11:17:44.772Z,101403.34
2022-12-01T11:20:32.695Z,101403.38
2022-12-01T11:23:29.873Z,101405.16
2022-12-01T11:26:06.516Z,101400.81
2022-12-01T11:28:36.996Z,101394.69
2022-12-01T11:31:08.503Z,101397.34
2022-12-01T11:33:46.087Z,101399.13
2022-12-01T11:36:23.385Z,101404.41
2022-12-01T11:38:58.662Z,101398.25
2022-12-01T11:41:32.670Z,101396.50
2022-12-01T11:44:12.832Z,101393.84
2022-12-01T11:46:55.730Z,101395.56
2022-12-01T11:49:47.087Z,101393.75
2022-12-01T11:52:23.483Z,101393.72
2022-12-01T11:55:09.765Z,101395.41
2022-12-01T11:57:41.848Z,101387.53
2022-12-01T12:00:17.157Z,101388.44
2022-12-01T12:02:57.514Z,101384.94
2022-12-01T12:05:52.671Z,101382.34
2022-12-01T12:08:30.569Z,101390.28
2022-12-01T12:11:21.507Z,101391.22
2022-12-01T12:14:19.906Z,101393.94
2022-12-01T12:17:03.432Z,101395.81
2022-12-01T12:20:07.156Z,101396.72
2022-12-01T12:22:43.542Z,101387.09
2022-12-01T12:25:25.641Z,101381.81
2022-12-01T12:28:07.675Z,101379.13
2022-12-01T12:30:44.970Z,101382.56
2022-12-01T12:33:39.045Z,101375.47
2022-12-01T12:36:14.256Z,101377.19
2022-12-01T12:38:54.664Z,101370.09
2022-12-01T12:41:30.282Z,101367.41
2022-12-01T12:44:12.760Z,101363.81
2022-12-01T12:46:50.871Z,101364.63
2022-12-01T12:49:30.240Z,101359.34
2022-12-01T12:52:08.284Z,101363.75
2022-12-01T12:54:44.774Z,101360.22
2022-12-01T12:57:22.449Z,101359.34
2022-12-01T12:59:58.669Z,101359.31
2022-12-01T13:02:32.351Z,101351.44
2022-12-01T13:05:06.216Z,101347.09
2022-12-01T13:07:40.783Z,101348.00
2022-12-01T13:10:17.669Z,101347.13
2022-12-01T13:12:56.193Z,101343.63
2022-12-01T13:15:30.349Z,101348.06
2022-12-01T13:18:03.931Z,101346.34
2022-12-01T13:20:34.797Z,101332.31
2022-12-01T13:23:05.099Z,101336.63
2022-12-01T13:25:38.834Z,101334.00
2022-12-01T13:28:15.730Z,101336.63
2022-12-01T13:31:01.153Z,101336.66
2022-12-01T13:33:31.007Z,101332.28
2022-12-01T13:36:38.201Z,101333.19
2022-12-01T13:38:59.084Z,101334.06
2022-12-01T13:41:31.438Z,101327.94
2022-12-01T13:44:03.520Z,101327.09
2022-12-01T13:46:53.729Z,101326.22
2022-12-01T13:49:40.753Z,101325.34
2022-12-01T13:52:28.728Z,101328.81
2022-12-01T13:55:27.235Z,101326.13
2022-12-01T13:58:24.403Z,101323.50
2022-12-01T14:00:54.203Z,101325.28
2022-12-01T14:03:43.499Z,101329.66
2022-12-01T14:06:24.496Z,101323.56
2022-12-01T14:08:54.997Z,101327.03
2022-12-01T14:11:26.585Z,101321.78
2022-12-01T14:13:59.252Z,101320.03
2022-12-01T14:16:48.249Z,101330.53
2022-12-01T14:19:35.279Z,101328.78
2022-12-01T14:22:05.717Z,101327.91
2022-12-01T14:24:37.970Z,101316.53
2022-12-01T14:27:08.285Z,101327.97
2022-12-01T14:29:38.849Z,101321.91
2022-12-01T14:32:23.957Z,101318.44
2022-12-01T14:34:58.363Z,101325.47
2022-12-01T14:37:32.773Z,101329.88
2022-12-01T14:40:08.984Z,101328.97
2022-12-01T14:42:53.004Z,101322.88
2022-12-01T14:45:25.408Z,101329.91
2022-12-01T14:48:00.397Z,101321.19
2022-12-01T14:50:45.037Z,101330.00
2022-12-01T14:53:25.058Z,101317.78
2022-12-01T14:55:57.485Z,101332.75
2022-12-01T14:58:29.338Z,101317.06
2022-12-01T15:01:06.894Z,101323.19
2022-12-01T15:03:39.460Z,101328.47
2022-12-01T15:06:12.357Z,101323.19
2022-12-01T15:08:53.128Z,101325.84
2022-12-01T15:11:33.244Z,101329.41
2022-12-01T15:14:02.830Z,101329.44
2022-12-01T15:16:33.156Z,101335.59
2022-12-01T15:19:02.966Z,101332.09
2022-12-01T15:21:35.356Z,101333.81
2022-12-01T15:24:06.728Z,101338.22
2022-12-01T15:26:48.871Z,101332.94
2022-12-01T15:29:20.798Z,101334.69
2022-12-01T15:31:52.126Z,101325.94
2022-12-01T15:34:24.100Z,101322.47
2022-12-01T15:36:57.129Z,101331.22
2022-12-01T15:39:32.472Z,101330.38
2022-12-01T15:42:02.517Z,101336.50
2022-12-01T15:44:34.571Z,101337.38
2022-12-01T15:47:43.476Z,101342.66
2022-12-01T15:50:33.583Z,101359.28
2022-12-01T15:53:07.372Z,101342.66
2022-12-01T15:55:39.486Z,101362.78
2022-12-01T15:58:10.262Z,101367.22
2022-12-01T16:00:40.410Z,101373.34
2022-12-01T16:03:16.321Z,101367.22
2022-12-01T16:05:47.089Z,101357.63
2022-12-01T16:08:21.997Z,101359.38
2022-12-01T16:11:12.774Z,101350.63
2022-12-01T16:13:46.883Z,101357.66
2022-12-01T16:16:38.705Z,101347.16
2022-12-01T16:19:26.450Z,101348.00
2022-12-01T16:21:58.688Z,101346.25
2022-12-01T16:24:33.339Z,101341.84
2022-12-01T16:27:05.154Z,101338.34
2022-12-01T16:29:38.268Z,101343.59
2022-12-01T16:32:22.253Z,101337.50
2022-12-01T16:34:53.402Z,101327.00
2022-12-01T16:37:24.240Z,101320.84
2022-12-01T16:39:56.390Z,101320.84
2022-12-01T16:42:26.000Z,101319.06
2022-12-01T16:44:55.590Z,101326.94
2022-12-01T16:47:26.826Z,101312.03
2022-12-01T16:49:56.456Z,101319.06
2022-12-01T16:55:27.355Z,101324.31
2022-12-01T16:57:58.060Z,101329.56
2022-12-01T17:00:29.430Z,101340.06
2022-12-01T17:02:59.704Z,101325.19
2022-12-01T17:05:29.373Z,101340.97
2022-12-01T17:07:59.027Z,101339.25
2022-12-01T17:10:31.251Z,101329.63
2022-12-01T17:13:00.851Z,101338.38
2022-12-01T17:15:30.508Z,101343.63
2022-12-01T17:18:00.160Z,101347.13
2022-12-01T17:20:29.771Z,101342.78
2022-12-01T17:22:59.776Z,101343.63
2022-12-01T17:25:31.945Z,101356.81
2022-12-01T17:28:01.744Z,101348.91
2022-12-01T17:30:31.334Z,101349.81
2022-12-01T17:33:01.153Z,101353.34
2022-12-01T17:35:30.837Z,101349.00
2022-12-01T17:38:00.440Z,101345.50
2022-12-01T17:40:32.608Z,101342.88
2022-12-01T17:43:03.642Z,101341.13
2022-12-01T17:45:33.898Z,101348.13
2022-12-01T17:48:03.450Z,101344.66
2022-12-01T17:50:33.254Z,101345.53
2022-12-01T17:53:02.970Z,101346.41
2022-12-01T17:55:35.149Z,101351.69
2022-12-01T17:58:04.706Z,101347.31
2022-12-01T18:00:34.423Z,101351.69
2022-12-01T18:03:04.083Z,101349.09
2022-12-01T18:05:33.787Z,101356.97
2022-12-01T18:08:03.551Z,101358.72
2022-12-01T18:10:35.826Z,101350.88
2022-12-01T18:13:05.382Z,101353.53
2022-12-01T18:15:37.352Z,101355.28
2022-12-01T18:18:07.111Z,101351.78
2022-12-01T18:20:37.007Z,101353.56
2022-12-01T18:23:06.568Z,101362.31
2022-12-01T18:25:42.676Z,101363.19
2022-12-01T18:28:12.280Z,101362.31
2022-12-01T18:30:41.833Z,101371.94
2022-12-01T18:33:13.203Z,101368.44
2022-12-01T18:35:46.323Z,101361.44
2022-12-01T18:38:16.108Z,101361.44
2022-12-01T18:40:48.252Z,101359.69
2022-12-01T18:43:17.920Z,101363.22
2022-12-01T18:45:47.476Z,101366.72
2022-12-01T18:48:17.140Z,101359.75
2022-12-01T18:50:46.732Z,101371.97
2022-12-01T18:53:16.304Z,101370.25
2022-12-01T18:55:48.472Z,101377.28
2022-12-01T18:58:18.865Z,101369.41
2022-12-01T19:00:48.537Z,101380.78
2022-12-01T19:03:18.188Z,101377.28
2022-12-01T19:05:47.779Z,101365.94
2022-12-01T19:08:17.424Z,101363.31
2022-12-01T19:11:00.900Z,101365.91
2022-12-01T19:13:30.702Z,101363.31
2022-12-01T19:16:00.443Z,101370.31
2022-12-01T19:18:30.310Z,101356.31
2022-12-01T19:21:03.833Z,101354.56
2022-12-01T19:23:34.297Z,101356.34
2022-12-01T19:26:08.810Z,101355.47
2022-12-01T19:28:40.386Z,101355.47
2022-12-01T19:31:11.181Z,101353.72
2022-12-01T19:33:41.059Z,101358.97
2022-12-01T19:36:13.182Z,101353.72
2022-12-01T19:38:44.554Z,101361.59
2022-12-01T19:41:20.324Z,101356.34
2022-12-01T19:43:50.060Z,101355.47
2022-12-01T19:46:22.394Z,101360.69
2022-12-01T19:48:56.468Z,101356.34
2022-12-01T19:51:27.350Z,101358.09
2022-12-01T19:53:57.779Z,101361.59
2022-12-01T19:56:31.515Z,101361.59
2022-12-01T19:59:01.327Z,101354.59
2022-12-01T20:01:31.028Z,101361.59
2022-12-01T20:04:00.634Z,101357.22
2022-12-01T20:06:32.376Z,101366.81
2022-12-01T20:09:03.271Z,101365.97
2022-12-01T20:11:35.671Z,101358.97
2022-12-01T20:14:07.483Z,101362.47
2022-12-01T20:16:37.157Z,101352.84
2022-12-01T20:19:08.300Z,101357.19
2022-12-01T20:21:42.150Z,101358.97
2022-12-01T20:24:15.021Z,101362.47
2022-12-01T20:26:49.234Z,101359.84
2022-12-01T20:29:20.404Z,101358.06
2022-12-01T20:31:50.635Z,101354.59
2022-12-01T20:34:22.841Z,101364.19
2022-12-01T20:36:52.426Z,101362.44
2022-12-01T20:39:22.428Z,101352.84
2022-12-01T20:41:54.560Z,101351.97
2022-12-01T20:44:24.380Z,101354.59
2022-12-01T20:46:54.230Z,101355.44
2022-12-01T20:49:24.008Z,101355.47
2022-12-01T20:51:53.624Z,101354.56
2022-12-01T20:54:28.305Z,101358.09
2022-12-01T20:57:01.767Z,101351.97
2022-12-01T20:59:31.931Z,101354.59
2022-12-01T21:02:01.539Z,101360.69
2022-12-01T21:04:31.124Z,101365.06
2022-12-01T21:07:01.096Z,101359.81
2022-12-01T21:09:30.779Z,101362.44
2022-12-01T21:12:18.198Z,101358.91
2022-12-01T21:14:51.405Z,101365.91
2022-12-01T21:17:27.969Z,101360.66
2022-12-01T21:20:01.625Z,101351.97
2022-12-01T21:22:31.335Z,101347.59
2022-12-01T21:25:05.460Z,101361.53
2022-12-01T21:27:37.603Z,101357.16
2022-12-01T21:30:16.089Z,101354.56
2022-12-01T21:32:46.077Z,101354.56
2022-12-01T21:35:21.322Z,101354.56
2022-12-01T21:37:51.958Z,101351.06
2022-12-01T21:40:23.711Z,101351.94
2022-12-01T21:42:56.091Z,101351.06
2022-12-01T21:45:28.706Z,101353.69
2022-12-01T21:48:02.516Z,101348.44
2022-12-01T21:50:32.864Z,101332.75
2022-12-01T21:53:02.479Z,101337.13
2022-12-01T21:55:42.126Z,101331.88
2022-12-01T21:58:39.227Z,101328.38
2022-12-01T22:01:19.877Z,101343.22
2022-12-01T22:03:49.597Z,101334.47
2022-12-01T22:06:30.072Z,101328.38
2022-12-01T22:09:02.907Z,101328.34
2022-12-01T22:11:33.317Z,101327.47
2022-12-01T22:14:14.414Z,101319.63
2022-12-01T22:16:46.235Z,101318.75
2022-12-01T22:19:27.936Z,101320.50
2022-12-01T22:22:02.818Z,101313.50
2022-12-01T22:24:36.095Z,101305.66
2022-12-01T22:27:17.150Z,101304.78
2022-12-01T22:29:50.142Z,101302.16
2022-12-01T22:32:35.716Z,101296.06
2022-12-01T22:35:32.909Z,101298.66
2022-12-01T22:38:14.729Z,101296.03
2022-12-01T22:40:47.660Z,101294.28
2022-12-01T22:43:25.621Z,101300.41
2022-12-01T22:46:04.493Z,101296.91
2022-12-01T22:48:38.408Z,101296.03
2022-12-01T22:51:26.757Z,101294.28
2022-12-01T22:54:00.467Z,101304.75
2022-12-01T22:56:33.160Z,101307.34
2022-12-01T22:59:02.798Z,101300.41
2022-12-01T23:01:36.760Z,101302.13
2022-12-01T23:04:18.030Z,101308.25
2022-12-01T23:06:56.948Z,101298.66
2022-12-01T23:09:30.356Z,101304.75
2022-12-01T23:12:03.335Z,101294.28
2022-12-01T23:14:32.907Z,101295.16
2022-12-01T23:17:09.406Z,101293.41
2022-12-01T23:19:38.987Z,101294.28
2022-12-01T23:22:08.559Z,101295.16
2022-12-01T23:24:38.125Z,101298.66
2022-12-01T23:27:08.676Z,101282.09
2022-12-01T23:29:38.432Z,101289.03
2022-12-01T23:32:10.642Z,101296.91
2022-12-01T23:34:40.476Z,101298.66
2022-12-01T23:37:24.272Z,101293.38
2022-12-01T23:39:53.926Z,101284.69
2022-12-01T23:42:23.509Z,101283.78
2022-12-01T23:44:53.366Z,101273.31
2022-12-01T23:47:28.211Z,101267.22
2022-12-01T23:50:01.741Z,101265.47
2022-12-01T23:52:34.417Z,101266.34
2022-12-01T23:55:04.349Z,101271.56
2022-12-01T23:57:34.144Z,101262.81
